Time;durP1;ratioP1;P1;durP2;ratioP2;P2;SDS_P1;SDS_P2;PMS_P1;PMS_P2;Temp;Humidity;BMP_temperature;BMP_pressure;BME280_temperature;BME280_humidity;BME280_pressure;Samples;Min_cycle;Max_cycle;Signal;HPM_P1;HPM_P2
2021/03/16 00:02:14;;;;;;;6.22;2.00;;;;;;;0.59;79.96;100259.50;5065854;28;20013;-65
2021/03/16 00:04:40;;;;;;;4.50;2.75;;;;;;;0.55;79.96;100256.81;5065426;28;20021;-65
2021/03/16 00:07:07;;;;;;;5.70;2.13;;;;;;;0.56;80.15;100267.06;5065881;28;20017;-64
2021/03/16 00:09:33;;;;;;;4.43;1.98;;;;;;;0.57;80.21;100263.72;5065488;28;20024;-64
2021/03/16 00:11:58;;;;;;;5.30;2.10;;;;;;;0.56;80.14;100263.66;5065770;28;20089;-64
2021/03/16 00:14:24;;;;;;;3.55;2.28;;;;;;;0.52;80.17;100266.94;5065612;28;20041;-64
2021/03/16 00:16:50;;;;;;;2.60;1.90;;;;;;;0.48;80.02;100271.06;5065633;28;20025;-64
2021/03/16 00:19:16;;;;;;;3.95;2.10;;;;;;;0.44;80.17;100265.03;5065474;28;20045;-64
2021/03/16 00:21:42;;;;;;;3.63;1.98;;;;;;;0.44;80.12;100282.03;5047264;28;20047;-64
2021/03/16 00:24:07;;;;;;;3.85;1.70;;;;;;;0.41;80.29;100277.69;5065338;28;20048;-63
2021/03/16 00:26:33;;;;;;;5.18;2.17;;;;;;;0.40;80.37;100287.88;5065241;28;20472;-64
2021/03/16 00:28:58;;;;;;;4.45;2.17;;;;;;;0.38;80.18;100295.50;5065255;28;20021;-64
2021/03/16 00:31:23;;;;;;;3.40;2.08;;;;;;;0.32;80.46;100285.09;5065461;28;20029;-65
2021/03/16 00:33:49;;;;;;;3.17;1.92;;;;;;;0.35;80.45;100285.19;5065192;28;20080;-65
2021/03/16 00:36:14;;;;;;;3.17;2.15;;;;;;;0.36;80.49;100286.91;5064754;28;20025;-65
2021/03/16 00:38:40;;;;;;;3.95;2.00;;;;;;;0.38;80.42;100292.06;5065041;28;20509;-64
2021/03/16 00:41:05;;;;;;;4.25;1.95;;;;;;;0.39;80.45;100297.22;5065196;28;20109;-65
2021/03/16 00:43:31;;;;;;;3.00;1.83;;;;;;;0.32;80.28;100287.63;5064964;28;20527;-65
2021/03/16 00:45:56;;;;;;;2.53;1.60;;;;;;;0.38;80.52;100300.59;5065101;28;20033;-65
2021/03/16 00:48:21;;;;;;;6.60;1.70;;;;;;;0.39;80.38;100297.22;5064916;28;20021;-65
2021/03/16 00:50:47;;;;;;;4.13;1.67;;;;;;;0.42;80.24;100301.53;5064427;28;20051;-65
2021/03/16 00:53:13;;;;;;;4.65;2.00;;;;;;;0.44;80.18;100300.78;5064909;28;20025;-65
2021/03/16 00:55:38;;;;;;;3.72;1.65;;;;;;;0.43;80.28;100298.19;5064804;28;20025;-65
2021/03/16 00:58:04;;;;;;;4.32;1.70;;;;;;;0.44;80.27;100299.91;5064754;28;20044;-65
2021/03/16 01:00:30;;;;;;;2.80;1.77;;;;;;;0.45;80.26;100310.19;5064613;28;20036;-65
2021/03/16 01:02:55;;;;;;;3.25;1.75;;;;;;;0.45;80.34;100307.63;5064457;28;20021;-65
2021/03/16 01:05:22;;;;;;;2.88;1.65;;;;;;;0.44;80.34;100308.44;5046062;28;20052;-65
2021/03/16 01:07:47;;;;;;;3.70;1.60;;;;;;;0.43;80.33;100305.84;5064505;28;20218;-65
2021/03/16 01:10:15;;;;;;;3.55;1.90;;;;;;;0.41;80.32;100310.03;5064373;28;20028;-66
2021/03/16 01:12:41;;;;;;;2.92;1.85;;;;;;;0.40;80.39;100313.41;5064637;28;20051;-65
2021/03/16 01:15:08;;;;;;;3.53;1.80;;;;;;;0.36;80.47;100318.44;5063860;28;20021;-65
2021/03/16 01:17:33;;;;;;;4.45;2.10;;;;;;;0.33;80.50;100314.91;5064442;28;20095;-65
2021/03/16 01:19:58;;;;;;;3.30;1.98;;;;;;;0.28;80.52;100317.31;5063885;28;20037;-65
2021/03/16 01:22:24;;;;;;;2.97;1.77;;;;;;;0.23;80.60;100311.19;5064268;28;20035;-65
2021/03/16 01:24:49;;;;;;;2.38;1.73;;;;;;;0.26;80.73;100334.25;5064000;28;20040;-65
2021/03/16 01:27:15;;;;;;;3.13;1.70;;;;;;;0.26;80.85;100330.84;5063939;28;20045;-65
2021/03/16 01:29:40;;;;;;;3.20;1.75;;;;;;;0.21;80.68;100329.00;5063858;28;20021;-65
2021/03/16 01:32:06;;;;;;;2.83;1.80;;;;;;;0.18;80.82;100330.56;5064152;28;20071;-65
2021/03/16 01:34:31;;;;;;;3.38;2.05;;;;;;;0.16;80.77;100337.34;5045708;28;20160;-65
2021/03/16 01:36:57;;;;;;;4.35;1.83;;;;;;;0.12;80.84;100338.91;5063974;28;20060;-65
2021/03/16 01:39:22;;;;;;;5.70;2.70;;;;;;;0.09;80.80;100343.91;5063702;28;20024;-65
2021/03/16 01:41:47;;;;;;;4.00;2.35;;;;;;;0.02;80.77;100339.44;5063028;28;20025;-65
2021/03/16 01:44:13;;;;;;;4.47;1.73;;;;;;;-0.04;80.69;100343.50;5062703;28;20024;-65
2021/03/16 01:46:39;;;;;;;3.40;1.98;;;;;;;-0.09;80.74;100344.16;5063895;28;20029;-66
2021/03/16 01:49:05;;;;;;;6.40;2.78;;;;;;;-0.16;80.76;100348.19;5063747;28;20025;-65
2021/03/16 01:51:30;;;;;;;5.63;2.83;;;;;;;-0.27;80.93;100340.16;5063450;28;20028;-65
2021/03/16 01:53:55;;;;;;;3.75;2.38;;;;;;;-0.24;81.01;100355.59;5063875;28;20648;-65
2021/03/16 01:56:21;;;;;;;4.50;2.63;;;;;;;-0.27;80.97;100360.56;5063631;28;20539;-65
2021/03/16 01:58:47;;;;;;;6.25;2.63;;;;;;;-0.29;81.26;100347.75;5063318;28;20021;-65
2021/03/16 02:01:13;;;;;;;5.47;2.80;;;;;;;-0.28;81.28;100352.06;5063547;28;20032;-65
2021/03/16 02:03:38;;;;;;;6.95;2.42;;;;;;;-0.26;81.46;100352.97;5063477;28;20025;-66
2021/03/16 02:06:10;;;;;;;4.78;2.15;;;;;;;-0.26;81.49;100352.97;5063204;28;20029;-65
2021/03/16 02:08:57;;;;;;;3.90;2.25;;;;;;;-0.24;81.50;100352.16;5045199;28;20021;-65
2021/03/16 02:11:33;;;;;;;5.88;2.60;;;;;;;-0.26;81.50;100358.06;5063490;28;20025;-65
2021/03/16 02:14:05;;;;;;;4.07;3.00;;;;;;;-0.24;81.61;100357.25;5045696;28;20021;-65
2021/03/16 02:16:52;;;;;;;6.05;2.55;;;;;;;-0.32;81.56;100362.94;5063435;28;20036;-65
2021/03/16 02:19:44;;;;;;;6.07;2.47;;;;;;;-0.30;81.66;100365.56;5044940;28;20033;-65
2021/03/16 02:22:09;;;;;;;4.13;2.40;;;;;;;-0.34;81.41;100366.28;5063510;28;20029;-65
2021/03/16 02:24:54;;;;;;;7.35;3.40;;;;;;;-0.36;81.67;100368.78;5063330;28;20025;-65
2021/03/16 02:27:24;;;;;;;6.43;2.40;;;;;;;-0.33;81.73;100371.44;5062342;28;20120;-63
2021/03/16 02:29:54;;;;;;;3.28;2.17;;;;;;;-0.36;81.77;100368.78;5063053;28;20417;-65
2021/03/16 02:32:22;;;;;;;4.13;3.05;;;;;;;-0.32;81.90;100369.75;5063217;28;20021;-66
2021/03/16 02:34:52;;;;;;;6.15;2.95;;;;;;;-0.34;81.95;100373.94;5062938;28;20028;-64
2021/03/16 02:37:19;;;;;;;5.82;3.20;;;;;;;-0.35;81.96;100367.94;5063325;28;20061;-65
2021/03/16 02:39:47;;;;;;;5.03;2.85;;;;;;;-0.40;81.97;100359.28;5062924;28;20046;-65
2021/03/16 02:42:15;;;;;;;5.78;2.85;;;;;;;-0.39;82.02;100366.13;5063242;28;20136;-65
2021/03/16 02:44:41;;;;;;;2.58;1.92;;;;;;;-0.40;81.93;100372.03;5062991;28;20112;-64
2021/03/16 02:47:07;;;;;;;4.28;2.00;;;;;;;-0.42;81.91;100366.00;5063382;28;20039;-65
2021/03/16 02:49:36;;;;;;;4.75;2.67;;;;;;;-0.44;82.07;100368.50;5062736;28;20596;-65
2021/03/16 02:52:03;;;;;;;4.13;2.28;;;;;;;-0.43;81.97;100370.22;5063149;28;20032;-64
2021/03/16 02:54:30;;;;;;;4.97;2.70;;;;;;;-0.41;81.99;100383.03;5063309;28;20025;-64
2021/03/16 02:56:58;;;;;;;4.90;2.30;;;;;;;-0.43;82.06;100374.47;5063025;28;20481;-64
2021/03/16 02:59:24;;;;;;;5.50;3.10;;;;;;;-0.47;82.09;100377.72;5063000;28;20273;-64
2021/03/16 03:01:51;;;;;;;4.47;2.95;;;;;;;-0.50;82.23;100381.03;5063062;28;20017;-64
2021/03/16 03:04:20;;;;;;;4.05;2.53;;;;;;;-0.52;82.23;100383.53;5062596;28;20024;-64
2021/03/16 03:06:46;;;;;;;5.72;2.70;;;;;;;-0.59;82.37;100376.44;5062810;28;20521;-64
2021/03/16 03:09:13;;;;;;;7.00;3.47;;;;;;;-0.64;82.30;100376.28;5062891;28;20116;-64
2021/03/16 03:11:39;;;;;;;5.40;2.63;;;;;;;-0.63;82.28;100387.34;5045165;28;20025;-64
2021/03/16 03:14:06;;;;;;;4.70;2.70;;;;;;;-0.73;82.29;100387.81;5044846;28;20037;-64
2021/03/16 03:16:31;;;;;;;4.90;3.30;;;;;;;-0.77;82.37;100394.50;5044965;28;20078;-64
2021/03/16 03:18:57;;;;;;;6.35;3.13;;;;;;;-0.88;82.33;100399.19;5062668;28;20111;-64
2021/03/16 03:21:44;;;;;;;6.88;3.67;;;;;;;-0.89;82.30;100416.16;5062412;28;20065;-64
2021/03/16 03:24:15;;;;;;;5.32;3.15;;;;;;;-0.98;82.18;100414.94;5062508;28;20029;-64
2021/03/16 03:26:44;;;;;;;11.07;3.88;;;;;;;-1.05;82.33;100418.91;5062693;28;20017;-64
2021/03/16 03:29:11;;;;;;;9.20;4.20;;;;;;;-1.08;82.25;100423.88;5062566;28;20028;-64
2021/03/16 03:31:41;;;;;;;9.63;4.13;;;;;;;-1.14;82.21;100429.63;5062953;28;20049;-64
2021/03/16 03:34:07;;;;;;;7.43;3.80;;;;;;;-1.18;82.56;100437.97;5062715;28;20425;-64
2021/03/16 03:36:37;;;;;;;8.25;4.20;;;;;;;-1.27;82.59;100436.78;5062434;28;20046;-64
2021/03/16 03:39:05;;;;;;;6.28;3.63;;;;;;;-1.27;82.71;100435.91;5065548;28;20028;-64
2021/03/16 03:41:33;;;;;;;6.10;3.42;;;;;;;-1.31;82.82;100442.53;5066263;28;20100;-64
2021/03/16 03:44:00;;;;;;;14.52;4.53;;;;;;;-1.35;82.78;100440.69;5065989;28;20032;-65
2021/03/16 03:46:26;;;;;;;9.18;3.92;;;;;;;-1.37;82.79;100438.06;5066245;28;20021;-64
2021/03/16 03:48:52;;;;;;;8.75;3.75;;;;;;;-1.39;82.86;100438.81;5048018;28;20029;-64
2021/03/16 03:51:20;;;;;;;6.93;3.00;;;;;;;-1.45;82.70;100433.50;5047851;28;20094;-64
2021/03/16 03:53:48;;;;;;;5.93;3.45;;;;;;;-1.47;82.82;100435.09;5066528;28;20085;-65
2021/03/16 03:56:14;;;;;;;4.63;3.50;;;;;;;-1.46;83.08;100441.91;5066167;28;20032;-65
2021/03/16 03:58:42;;;;;;;4.88;3.28;;;;;;;-1.47;83.07;100450.38;5065749;28;20086;-64
2021/03/16 04:01:08;;;;;;;6.10;3.78;;;;;;;-1.47;83.33;100453.75;5047914;28;20455;-64
2021/03/16 04:03:35;;;;;;;6.38;3.53;;;;;;;-1.50;83.28;100457.06;5065603;28;20054;-64
2021/03/16 04:06:01;;;;;;;7.72;3.85;;;;;;;-1.47;83.28;100452.91;5065580;28;20046;-64
2021/03/16 04:08:27;;;;;;;5.10;2.70;;;;;;;-1.47;83.32;100455.47;5066015;28;20031;-64
2021/03/16 04:10:53;;;;;;;6.75;3.55;;;;;;;-1.50;83.21;100448.53;5065477;28;20057;-64
2021/03/16 04:13:18;;;;;;;4.63;2.90;;;;;;;-1.47;83.49;100450.38;5065623;28;20020;-64
2021/03/16 04:15:45;;;;;;;7.07;3.40;;;;;;;-1.46;83.41;100462.28;5065468;28;20036;-64
2021/03/16 04:18:12;;;;;;;5.50;3.25;;;;;;;-1.47;83.58;100465.66;5065520;28;20056;-64
2021/03/16 04:20:38;;;;;;;3.92;2.75;;;;;;;-1.48;83.51;100471.53;5065127;28;20112;-64
2021/03/16 04:23:03;;;;;;;5.40;3.22;;;;;;;-1.48;83.48;100467.31;5065454;28;20021;-64
2021/03/16 04:25:29;;;;;;;4.78;3.05;;;;;;;-1.48;83.69;100464.78;5065329;28;20033;-64
2021/03/16 04:27:54;;;;;;;4.47;2.65;;;;;;;-1.47;83.71;100465.66;5065060;28;20096;-64
2021/03/16 04:30:20;;;;;;;5.78;3.15;;;;;;;-1.46;83.60;100465.72;5065061;28;20072;-64
2021/03/16 04:32:46;;;;;;;5.72;3.10;;;;;;;-1.45;83.70;100474.22;5065347;28;20063;-64
2021/03/16 04:35:12;;;;;;;7.85;2.95;;;;;;;-1.50;83.63;100472.34;5064831;28;20044;-66
2021/03/16 04:37:39;;;;;;;6.53;3.17;;;;;;;-1.44;83.73;100475.97;5065135;28;20024;-65
2021/03/16 04:40:07;;;;;;;4.00;2.80;;;;;;;-1.43;83.77;100476.03;5065014;28;20028;-65
2021/03/16 04:42:32;;;;;;;6.47;3.05;;;;;;;-1.40;83.87;100478.69;5064864;28;20024;-64
2021/03/16 04:44:57;;;;;;;4.88;2.85;;;;;;;-1.40;83.90;100478.69;5064840;28;20021;-65
2021/03/16 04:47:23;;;;;;;6.55;3.13;;;;;;;-1.33;83.99;100489.13;5065154;28;20032;-64
2021/03/16 04:49:48;;;;;;;6.93;2.45;;;;;;;-1.29;84.03;100486.78;5063694;28;20025;-64
2021/03/16 04:52:13;;;;;;;5.82;2.53;;;;;;;-1.32;83.98;100480.69;5064769;28;20017;-64
2021/03/16 04:54:39;;;;;;;4.10;3.05;;;;;;;-1.22;84.05;100493.00;5064515;28;20021;-65
2021/03/16 04:57:04;;;;;;;5.50;2.80;;;;;;;-1.19;83.94;100487.16;5064953;28;20021;-65
2021/03/16 04:59:30;;;;;;;4.85;2.67;;;;;;;-1.20;84.10;100488.84;5064568;28;20031;-64
2021/03/16 05:01:55;;;;;;;4.30;2.67;;;;;;;-1.23;83.98;100487.84;5064577;28;20122;-65
2021/03/16 05:04:20;;;;;;;5.50;3.20;;;;;;;-1.16;83.76;100494.91;5046598;28;20025;-65
2021/03/16 05:06:46;;;;;;;5.00;2.75;;;;;;;-1.17;83.81;100501.72;5064059;28;20056;-65
2021/03/16 05:09:12;;;;;;;6.13;2.72;;;;;;;-1.18;83.91;100501.66;5064489;28;20040;-65
2021/03/16 05:11:38;;;;;;;4.68;2.53;;;;;;;-1.20;83.73;100510.91;5064461;28;20025;-65
2021/03/16 05:14:03;;;;;;;3.95;2.45;;;;;;;-1.22;83.80;100503.19;5064320;28;20020;-65
2021/03/16 05:16:31;;;;;;;6.97;2.55;;;;;;;-1.21;83.78;100510.03;5064522;28;20021;-64
2021/03/16 05:18:56;;;;;;;3.42;2.33;;;;;;;-1.19;83.59;100510.97;5046021;28;20037;-64
2021/03/16 05:21:21;;;;;;;5.07;2.83;;;;;;;-1.15;83.75;100517.06;5063933;28;20036;-65
2021/03/16 05:23:47;;;;;;;3.35;2.40;;;;;;;-1.19;83.65;100518.59;5064054;28;20021;-64
2021/03/16 05:26:12;;;;;;;5.15;2.83;;;;;;;-1.22;83.54;100513.38;5064176;28;20021;-66
2021/03/16 05:28:37;;;;;;;4.47;2.70;;;;;;;-1.28;83.66;100513.97;5063808;28;20246;-63
2021/03/16 05:31:03;;;;;;;6.72;3.17;;;;;;;-1.22;83.86;100522.69;5063985;28;20041;-65
2021/03/16 05:33:28;;;;;;;5.32;2.60;;;;;;;-1.17;84.06;100523.75;5064128;28;20013;-65
2021/03/16 05:35:54;;;;;;;4.68;2.80;;;;;;;-1.11;84.27;100516.38;5063662;28;20013;-65
2021/03/16 05:38:19;;;;;;;3.47;2.58;;;;;;;-0.88;84.60;100530.03;5064007;28;20028;-65
2021/03/16 05:40:45;;;;;;;4.80;2.30;;;;;;;-0.67;84.63;100525.75;5063157;28;20097;-69
2021/03/16 05:43:11;;;;;;;4.22;2.42;;;;;;;-0.48;84.88;100521.38;5044990;28;20052;-67
2021/03/16 05:45:39;;;;;;;5.30;2.25;;;;;;;-0.18;85.27;100526.78;5063922;28;20457;-66
2021/03/16 05:48:09;;;;;;;4.68;2.15;;;;;;;0.17;85.92;100531.44;5063791;28;20028;-65
2021/03/16 05:50:34;;;;;;;5.65;2.30;;;;;;;0.61;86.93;100531.25;5062668;28;20021;-64
2021/03/16 05:53:02;;;;;;;3.58;2.28;;;;;;;1.06;87.80;100538.69;5062761;28;20016;-65
2021/03/16 05:55:28;;;;;;;2.58;2.00;;;;;;;1.54;88.29;100540.19;5062519;28;20020;-65
2021/03/16 05:57:54;;;;;;;6.82;2.38;;;;;;;2.06;89.23;100544.28;5063164;28;20017;-64
2021/03/16 06:00:19;;;;;;;7.40;2.17;;;;;;;2.54;89.83;100548.13;5063342;28;20025;-65
2021/03/16 06:02:45;;;;;;;3.92;2.05;;;;;;;2.94;90.10;100538.06;5063618;28;20056;-65
2021/03/16 06:05:12;;;;;;;5.63;2.25;;;;;;;3.36;90.09;100545.88;5063219;28;20188;-65
2021/03/16 06:07:37;;;;;;;5.40;2.22;;;;;;;3.78;90.20;100553.66;5045727;28;20028;-65
2021/03/16 06:10:04;;;;;;;5.20;2.42;;;;;;;4.13;89.86;100548.41;5063360;28;20021;-65
2021/03/16 06:12:34;;;;;;;7.45;2.50;;;;;;;4.30;89.41;100555.56;5063765;28;20029;-65
2021/03/16 06:15:29;;;;;;;8.25;2.30;;;;;;;4.62;89.20;100554.50;5063347;28;20025;-66
2021/03/16 06:17:54;;;;;;;4.57;2.58;;;;;;;4.75;88.63;100555.56;5041575;28;20456;-66
2021/03/16 06:20:28;;;;;;;5.30;1.92;;;;;;;4.96;88.13;100555.06;5062589;28;20017;-65
2021/03/16 06:23:09;;;;;;;3.05;2.05;;;;;;;5.20;87.98;100553.75;5063125;28;20021;-66
2021/03/16 06:25:37;;;;;;;1.90;1.52;;;;;;;5.61;88.26;100550.06;5063083;28;20025;-66
2021/03/16 06:28:05;;;;;;;3.15;1.70;;;;;;;5.73;87.73;100553.66;5063404;28;20083;-66
2021/03/16 06:30:31;;;;;;;3.55;1.35;;;;;;;5.98;87.41;100554.00;5063399;28;20025;-66
2021/03/16 06:32:57;;;;;;;4.97;1.65;;;;;;;6.16;85.45;100556.84;5063593;28;20031;-66
2021/03/16 06:35:23;;;;;;;2.67;1.60;;;;;;;6.25;83.12;100550.06;5063172;28;20493;-66
2021/03/16 06:38:06;;;;;;;4.03;1.20;;;;;;;6.44;84.96;100545.97;5045562;28;20028;-66
2021/03/16 06:40:33;;;;;;;2.38;1.30;;;;;;;6.86;84.60;100558.44;5063119;28;20112;-66
2021/03/16 06:43:17;;;;;;;2.53;1.40;;;;;;;7.10;83.51;100562.09;5063340;28;20080;-66
2021/03/16 06:45:42;;;;;;;4.95;1.17;;;;;;;7.36;82.83;100562.31;5063400;28;20041;-66
2021/03/16 06:48:24;;;;;;;3.90;1.58;;;;;;;7.53;83.11;100564.13;5063350;28;20039;-66
2021/03/16 06:50:51;;;;;;;2.15;1.30;;;;;;;7.71;82.46;100565.97;5062810;28;20074;-66
2021/03/16 06:53:19;;;;;;;2.05;1.38;;;;;;;7.94;82.14;100562.63;5063345;28;20036;-66
2021/03/16 06:55:51;;;;;;;4.63;1.55;;;;;;;7.88;81.30;100567.78;5063188;28;20021;-67
2021/03/16 06:58:16;;;;;;;2.15;1.33;;;;;;;7.80;81.44;100568.63;5063142;28;20032;-66
2021/03/16 07:00:41;;;;;;;5.15;1.25;;;;;;;8.06;81.84;100574.78;5062808;28;20029;-67
2021/03/16 07:03:15;;;;;;;3.50;1.52;;;;;;;8.17;81.01;100573.09;5044911;28;20057;-67
2021/03/16 07:05:41;;;;;;;3.03;1.20;;;;;;;8.45;81.28;100571.47;5044603;28;20358;-66
2021/03/16 07:08:07;;;;;;;3.88;1.48;;;;;;;8.52;78.77;100579.25;5063038;28;20028;-64
2021/03/16 07:10:37;;;;;;;4.78;1.40;;;;;;;8.16;77.79;100579.13;5062775;28;20493;-65
2021/03/16 07:13:03;;;;;;;2.75;1.50;;;;;;;8.10;78.05;100581.69;5064085;28;20055;-65
2021/03/16 07:15:29;;;;;;;2.85;1.75;;;;;;;8.59;77.14;100580.19;5066435;28;20070;-65
2021/03/16 07:17:57;;;;;;;3.45;1.70;;;;;;;9.04;76.06;100587.16;5066540;28;20032;-65
2021/03/16 07:20:27;;;;;;;2.85;1.58;;;;;;;8.92;74.22;100585.41;5066071;28;20048;-66
2021/03/16 07:22:57;;;;;;;4.88;1.77;;;;;;;8.49;73.72;100581.84;5066484;28;20048;-65
2021/03/16 07:25:23;;;;;;;3.83;1.75;;;;;;;8.14;74.14;100586.03;5066426;28;20021;-67
2021/03/16 07:27:50;;;;;;;2.85;1.33;;;;;;;8.31;74.69;100586.09;5066438;28;20057;-66
2021/03/16 07:30:16;;;;;;;4.63;2.13;;;;;;;8.66;74.20;100576.72;5066206;28;20032;-65
2021/03/16 07:32:43;;;;;;;5.65;1.30;;;;;;;8.70;72.49;100592.28;5066578;28;20035;-66
2021/03/16 07:35:09;;;;;;;4.97;1.88;;;;;;;8.44;71.67;100596.47;5065894;28;20036;-65
2021/03/16 07:37:35;;;;;;;2.35;1.33;;;;;;;8.40;72.71;100600.78;5066164;28;20020;-65
2021/03/16 07:40:05;;;;;;;3.78;1.65;;;;;;;8.27;72.81;100606.75;5066342;28;20039;-66
2021/03/16 07:42:31;;;;;;;3.30;1.52;;;;;;;8.28;73.42;100613.66;5066338;28;20071;-66
2021/03/16 07:44:57;;;;;;;3.58;1.48;;;;;;;8.29;72.37;100610.22;5065800;28;20128;-65
2021/03/16 07:47:33;;;;;;;4.53;1.50;;;;;;;8.25;72.87;100614.53;5065962;28;20049;-65
2021/03/16 07:50:06;;;;;;;4.70;1.48;;;;;;;7.96;71.97;100609.19;5065768;28;20040;-65
2021/03/16 07:52:43;;;;;;;5.85;1.27;;;;;;;7.81;74.52;100621.19;5066168;28;20033;-66
2021/03/16 07:55:09;;;;;;;3.13;1.52;;;;;;;8.09;74.59;100620.47;5065958;28;20017;-66
2021/03/16 07:57:35;;;;;;;2.53;1.50;;;;;;;8.21;72.77;100614.50;5065919;28;20056;-66
2021/03/16 08:00:07;;;;;;;2.40;1.77;;;;;;;8.09;72.56;100628.22;5065758;28;20037;-66
2021/03/16 08:02:35;;;;;;;3.47;1.55;;;;;;;7.90;72.69;100621.25;5047606;28;20025;-66
2021/03/16 08:05:01;;;;;;;2.10;1.20;;;;;;;8.05;73.17;100629.94;5065431;28;20033;-67
2021/03/16 08:07:30;;;;;;;1.50;1.20;;;;;;;8.34;75.52;100628.34;5065726;28;20047;-66
2021/03/16 08:09:57;;;;;;;2.88;1.58;;;;;;;8.74;75.99;100636.28;5065482;28;20084;-66
2021/03/16 08:12:30;;;;;;;3.38;1.20;;;;;;;8.75;71.64;100637.16;5065666;28;20025;-66
2021/03/16 08:14:56;;;;;;;6.43;1.85;;;;;;;8.41;71.50;100623.22;5065518;28;20028;-67
2021/03/16 08:17:30;;;;;;;3.80;1.70;;;;;;;8.41;72.84;100640.44;5065594;28;20052;-67
2021/03/16 08:19:56;;;;;;;4.30;1.52;;;;;;;8.48;72.66;100644.78;5065147;28;20078;-67
2021/03/16 08:22:23;;;;;;;6.47;2.13;;;;;;;8.45;72.10;100643.94;5065374;28;20054;-66
2021/03/16 08:24:53;;;;;;;3.92;1.67;;;;;;;8.45;72.83;100649.09;5063958;28;20051;-67
2021/03/16 08:27:19;;;;;;;6.55;2.05;;;;;;;8.55;71.49;100656.06;5065097;28;20041;-67
2021/03/16 08:29:47;;;;;;;3.30;1.85;;;;;;;8.29;70.40;100660.22;5065131;28;20021;-66
2021/03/16 08:32:15;;;;;;;3.47;2.00;;;;;;;8.11;71.60;100663.59;5065024;28;20071;-66
2021/03/16 08:34:42;;;;;;;4.95;1.63;;;;;;;8.06;72.14;100653.22;5064321;28;20028;-66
2021/03/16 08:37:18;;;;;;;6.97;2.03;;;;;;;8.17;70.48;100665.34;5063595;28;20028;-66
2021/03/16 08:39:43;;;;;;;7.78;2.55;;;;;;;8.24;71.06;100671.41;5046112;28;20112;-66
2021/03/16 08:42:09;;;;;;;8.80;2.53;;;;;;;8.47;71.28;100678.41;5064823;28;20051;-66
2021/03/16 08:44:34;;;;;;;7.25;2.38;;;;;;;8.53;71.14;100668.97;5064818;28;20032;-66
2021/03/16 08:47:16;;;;;;;10.77;2.97;;;;;;;8.46;71.01;100676.69;5064728;28;20103;-66
2021/03/16 08:49:44;;;;;;;3.97;2.20;;;;;;;8.27;70.70;100671.44;5063765;28;20088;-66
2021/03/16 08:52:21;;;;;;;9.20;2.20;;;;;;;8.10;70.57;100677.34;5064188;28;20099;-67
2021/03/16 08:54:48;;;;;;;3.33;2.08;;;;;;;7.98;70.08;100675.56;5064684;28;20017;-67
2021/03/16 08:57:25;;;;;;;4.90;2.15;;;;;;;7.84;70.74;100678.06;5065099;28;20369;-66
2021/03/16 08:59:52;;;;;;;5.15;1.98;;;;;;;7.88;70.26;100684.09;5064442;28;20025;-66
2021/03/16 09:02:28;;;;;;;6.43;2.08;;;;;;;7.71;70.43;100678.81;5064415;28;20090;-66
2021/03/16 09:04:54;;;;;;;6.00;2.47;;;;;;;7.78;71.09;100681.47;5047749;28;20026;-66
2021/03/16 09:07:27;;;;;;;6.80;2.17;;;;;;;8.27;72.39;100686.94;5064295;28;20032;-67
2021/03/16 09:10:09;;;;;;;5.68;2.25;;;;;;;8.84;71.30;100686.38;5064145;28;20029;-66
2021/03/16 09:12:36;;;;;;;11.88;3.15;;;;;;;9.45;70.39;100696.88;5064426;28;20088;-67
2021/03/16 09:15:10;;;;;;;13.93;2.50;;;;;;;9.83;65.86;100684.75;5064704;28;20036;-66
2021/03/16 09:17:37;;;;;;;6.78;2.85;;;;;;;9.86;64.35;100692.53;5064503;28;20055;-66
2021/03/16 09:20:09;;;;;;;9.65;2.25;;;;;;;10.31;65.35;100694.19;5064164;28;20021;-66
2021/03/16 09:22:35;;;;;;;9.95;2.50;;;;;;;10.84;63.11;100686.25;5064624;28;20025;-67
2021/03/16 09:25:00;;;;;;;7.20;3.28;;;;;;;11.18;61.02;100692.09;5064195;28;20035;-66
2021/03/16 09:27:26;;;;;;;5.03;2.03;;;;;;;11.04;62.25;100693.03;5064069;28;20068;-66
2021/03/16 09:29:52;;;;;;;7.22;1.90;;;;;;;10.71;61.58;100692.34;5064056;28;20028;-67
2021/03/16 09:32:17;;;;;;;3.88;1.95;;;;;;;10.59;61.95;100696.72;5064246;28;20021;-67
2021/03/16 09:34:47;;;;;;;6.00;2.00;;;;;;;10.83;62.36;100696.63;5064140;28;20462;-66
2021/03/16 09:37:15;;;;;;;5.95;1.95;;;;;;;11.32;63.42;100703.28;5063466;28;20021;-67
2021/03/16 09:39:55;;;;;;;4.18;1.52;;;;;;;11.82;62.56;100705.47;5063537;28;20021;-67
2021/03/16 09:42:32;;;;;;;7.43;1.60;;;;;;;12.13;60.97;100706.97;5063152;28;20481;-67
2021/03/16 09:44:58;;;;;;;4.70;1.48;;;;;;;12.55;61.54;100706.53;5063575;28;20037;-66
2021/03/16 09:47:25;;;;;;;3.60;2.05;;;;;;;12.74;59.27;100709.78;5046040;28;20029;-67
2021/03/16 09:50:08;;;;;;;7.25;2.03;;;;;;;12.31;56.20;100718.06;5063854;28;20059;-67
2021/03/16 09:52:34;;;;;;;8.30;1.50;;;;;;;12.12;58.00;100723.47;5063590;28;20040;-66
2021/03/16 09:55:00;;;;;;;5.55;1.55;;;;;;;11.93;55.50;100720.16;5063900;28;20025;-68
2021/03/16 09:57:34;;;;;;;8.50;2.17;;;;;;;11.62;57.38;100722.13;5063824;28;20040;-68
2021/03/16 10:00:00;;;;;;;10.70;1.50;;;;;;;11.49;56.83;100728.28;5063585;28;20116;-68
2021/03/16 10:02:37;;;;;;;4.93;1.85;;;;;;;11.48;54.94;100723.97;5045812;28;20056;-68
2021/03/16 10:05:14;;;;;;;5.72;1.50;;;;;;;11.92;56.38;100726.25;5063567;28;20032;-68
2021/03/16 10:07:40;;;;;;;7.65;1.50;;;;;;;12.62;54.95;100722.94;5045566;28;20045;-67
2021/03/16 10:10:05;;;;;;;5.78;1.92;;;;;;;13.35;54.39;100718.50;5063394;28;20028;-66
2021/03/16 10:12:31;;;;;;;4.68;1.50;;;;;;;14.13;53.30;100723.34;5063578;28;20024;-67
2021/03/16 10:14:56;;;;;;;5.35;1.55;;;;;;;14.93;51.04;100724.44;5063515;28;20377;-67
2021/03/16 10:17:25;;;;;;;14.38;1.88;;;;;;;15.83;49.75;100710.16;5063370;28;20047;-67
2021/03/16 10:20:03;;;;;;;17.67;2.40;;;;;;;16.57;48.68;100715.19;5063346;28;20025;-66
2021/03/16 10:22:31;;;;;;;8.40;1.65;;;;;;;17.24;45.03;100716.75;5063310;28;20029;-67
2021/03/16 10:24:58;;;;;;;7.32;1.98;;;;;;;17.61;42.68;100715.56;5063331;28;20121;-68
2021/03/16 10:27:29;;;;;;;6.43;1.73;;;;;;;17.89;42.24;100714.63;5063208;28;20045;-67
2021/03/16 10:29:55;;;;;;;8.07;1.58;;;;;;;17.92;42.29;100718.94;5063051;28;20028;-68
2021/03/16 10:32:21;;;;;;;7.00;1.77;;;;;;;17.67;40.88;100723.22;5063374;28;20036;-68
2021/03/16 10:34:47;;;;;;;7.50;1.63;;;;;;;17.49;41.30;100718.59;5063454;28;20017;-67
2021/03/16 10:37:19;;;;;;;7.32;1.55;;;;;;;17.63;40.55;100723.38;5062951;28;20061;-68
2021/03/16 10:39:45;;;;;;;6.57;1.35;;;;;;;17.82;38.62;100728.88;5063207;28;20024;-68
2021/03/16 10:42:10;;;;;;;5.70;1.30;;;;;;;17.98;38.44;100726.59;5063235;28;20020;-67
2021/03/16 10:44:36;;;;;;;10.02;2.10;;;;;;;18.03;34.67;100727.28;5062985;28;20069;-68
2021/03/16 10:47:01;;;;;;;6.85;1.63;;;;;;;17.81;37.54;100730.63;5063148;28;20045;-68
2021/03/16 10:49:26;;;;;;;6.00;1.80;;;;;;;17.62;38.58;100725.13;5066703;28;20033;-68
2021/03/16 10:51:52;;;;;;;4.32;1.80;;;;;;;17.55;38.08;100727.13;5066915;28;20028;-68
2021/03/16 10:54:17;;;;;;;5.93;2.20;;;;;;;17.31;38.75;100726.16;5049070;28;20017;-68
2021/03/16 10:56:42;;;;;;;4.63;1.98;;;;;;;17.17;36.11;100731.81;5066912;28;20021;-68
2021/03/16 10:59:08;;;;;;;7.80;1.92;;;;;;;16.93;38.28;100735.09;5066896;28;20028;-68
2021/03/16 11:01:33;;;;;;;7.25;2.70;;;;;;;17.12;39.85;100731.97;5066752;28;20061;-66
2021/03/16 11:03:58;;;;;;;7.40;1.90;;;;;;;17.64;40.81;100732.97;5066715;28;20174;-68
2021/03/16 11:06:24;;;;;;;5.63;1.80;;;;;;;18.21;40.90;100733.69;5066474;28;20097;-68
2021/03/16 11:08:49;;;;;;;4.88;1.67;;;;;;;18.65;38.14;100734.78;5066894;28;20025;-68
2021/03/16 11:11:14;;;;;;;5.32;1.40;;;;;;;19.10;37.22;100726.13;5066742;28;20536;-67
2021/03/16 11:13:40;;;;;;;4.63;1.40;;;;;;;19.55;37.58;100725.19;5067029;28;20024;-67
2021/03/16 11:16:05;;;;;;;7.15;1.30;;;;;;;20.09;35.21;100723.00;5066642;28;20350;-67
2021/03/16 11:18:31;;;;;;;1.23;0.77;;;;;;;20.37;35.11;100727.03;5066647;28;20042;-67
2021/03/16 11:20:56;;;;;;;36.15;3.25;;;;;;;20.72;35.66;100731.66;5066299;28;20021;-67
2021/03/16 11:23:21;;;;;;;3.67;1.30;;;;;;;21.27;35.68;100728.22;5066403;28;20036;-67
2021/03/16 11:25:47;;;;;;;4.35;1.02;;;;;;;21.78;35.69;100732.81;5066309;28;20025;-67
2021/03/16 11:28:12;;;;;;;4.65;1.08;;;;;;;22.00;33.64;100728.19;5066184;28;20072;-66
2021/03/16 11:30:38;;;;;;;3.42;1.30;;;;;;;21.84;32.19;100733.44;5066221;28;20070;-67
2021/03/16 11:33:04;;;;;;;4.82;1.30;;;;;;;21.26;29.01;100726.50;5066316;28;20051;-67